Time;durP1;ratioP1;P1;durP2;ratioP2;P2;SDS_P1;SDS_P2;PMS_P1;PMS_P2;Temp;Humidity;BMP_temperature;BMP_pressure;BME280_temperature;BME280_humidity;BME280_pressure;Samples;Min_cycle;Max_cycle;Signal;HPM_P1;HPM_P2
2022/04/03 00:00:16;;;;;;;5.97;1.73;;;2.20;71.30;;;;;;5058183;28;20045;-73
2022/04/03 00:02:42;;;;;;;3.20;1.63;;;2.20;71.40;;;;;;5051115;28;20053;-73
2022/04/03 00:05:08;;;;;;;4.05;1.77;;;2.20;71.40;;;;;;5044609;28;20555;-74
2022/04/03 00:07:34;;;;;;;8.30;2.35;;;2.20;71.30;;;;;;5049233;28;20136;-73
2022/04/03 00:10:00;;;;;;;3.60;2.08;;;2.30;71.40;;;;;;5052277;28;20581;-74
2022/04/03 00:12:26;;;;;;;3.95;1.95;;;2.30;71.40;;;;;;5050702;28;20047;-74
2022/04/03 00:14:53;;;;;;;4.78;2.03;;;2.30;71.50;;;;;;5056117;28;20047;-74
2022/04/03 00:17:18;;;;;;;8.65;1.88;;;2.30;71.60;;;;;;5055117;28;20067;-73
2022/04/03 00:19:44;;;;;;;9.15;2.28;;;2.20;71.70;;;;;;5054231;28;20044;-74
2022/04/03 00:22:13;;;;;;;10.10;3.60;;;2.30;71.70;;;;;;5067167;28;20079;-74
2022/04/03 00:24:39;;;;;;;12.52;2.95;;;2.30;72.00;;;;;;5053983;28;20044;-73
2022/04/03 00:27:05;;;;;;;8.00;2.78;;;2.30;71.90;;;;;;5056021;28;20478;-74
2022/04/03 00:29:31;;;;;;;9.05;2.40;;;2.30;72.00;;;;;;5050078;28;20045;-74
2022/04/03 00:31:57;;;;;;;8.82;2.42;;;2.40;72.20;;;;;;5050605;28;20041;-74
2022/04/03 00:34:23;;;;;;;5.88;2.70;;;2.40;72.30;;;;;;5050998;28;20059;-74
2022/04/03 00:36:49;;;;;;;3.80;1.85;;;2.40;72.60;;;;;;5050233;28;20045;-74
2022/04/03 00:39:14;;;;;;;4.47;1.55;;;2.30;72.70;;;;;;5054755;28;20449;-74
2022/04/03 00:41:41;;;;;;;3.50;1.40;;;2.30;73.10;;;;;;5043865;28;20040;-73
2022/04/03 00:44:07;;;;;;;6.88;1.65;;;2.30;73.10;;;;;;5050294;28;20051;-73
2022/04/03 00:46:34;;;;;;;4.18;1.75;;;2.40;73.00;;;;;;5048955;28;20053;-74
2022/04/03 00:49:00;;;;;;;6.60;2.30;;;2.40;73.20;;;;;;5048806;28;20064;-74
2022/04/03 00:51:27;;;;;;;4.85;1.33;;;2.40;73.10;;;;;;5048983;28;20040;-74
2022/04/03 00:53:53;;;;;;;3.65;1.63;;;2.50;73.20;;;;;;5049739;28;20406;-74
2022/04/03 00:56:19;;;;;;;6.00;1.40;;;2.50;73.20;;;;;;5049763;28;20045;-74
2022/04/03 00:58:45;;;;;;;4.43;1.50;;;2.60;73.30;;;;;;5049157;28;20098;-74
2022/04/03 01:01:11;;;;;;;5.35;1.27;;;2.60;73.30;;;;;;5048944;28;20432;-73
2022/04/03 01:03:37;;;;;;;1.95;0.95;;;2.60;73.10;;;;;;5048794;28;20128;-74
2022/04/03 01:06:03;;;;;;;3.72;1.95;;;2.60;73.20;;;;;;5048116;28;20120;-74
2022/04/03 01:08:29;;;;;;;3.63;1.40;;;2.60;73.10;;;;;;5046468;28;20080;-74
2022/04/03 01:10:55;;;;;;;2.65;1.63;;;2.60;73.10;;;;;;5048959;28;20650;-74
2022/04/03 01:13:21;;;;;;;2.70;1.35;;;2.60;73.30;;;;;;5046985;28;20116;-74
2022/04/03 01:15:52;;;;;;;3.95;1.30;;;2.50;73.40;;;;;;5048397;28;20051;-74
2022/04/03 01:18:18;;;;;;;3.80;1.20;;;2.60;73.50;;;;;;5048874;28;20032;-73
2022/04/03 01:20:44;;;;;;;4.38;2.00;;;2.60;73.60;;;;;;5058307;28;20052;-73
2022/04/03 01:23:11;;;;;;;3.45;1.08;;;2.60;73.50;;;;;;5049953;28;20133;-73
2022/04/03 01:25:37;;;;;;;4.40;1.63;;;2.70;73.60;;;;;;5051093;28;20037;-73
2022/04/03 01:28:03;;;;;;;3.45;1.30;;;2.70;73.50;;;;;;5054322;28;20036;-73
2022/04/03 01:30:28;;;;;;;5.28;1.42;;;2.70;73.50;;;;;;5053604;28;20485;-74
2022/04/03 01:32:54;;;;;;;6.25;1.20;;;2.70;73.40;;;;;;5052838;28;20045;-74
2022/04/03 01:35:20;;;;;;;2.75;1.15;;;2.70;73.00;;;;;;5055903;28;20045;-75
2022/04/03 01:37:46;;;;;;;3.60;1.20;;;2.70;73.20;;;;;;5052891;28;20033;-73
2022/04/03 01:40:12;;;;;;;2.75;1.05;;;2.70;73.20;;;;;;5052601;28;20064;-74
2022/04/03 01:42:38;;;;;;;3.85;1.02;;;2.60;72.90;;;;;;5052348;28;20319;-74
2022/04/03 01:45:06;;;;;;;2.80;1.35;;;2.70;73.10;;;;;;5051224;28;20033;-75
2022/04/03 01:47:32;;;;;;;5.25;1.40;;;2.80;73.00;;;;;;5054861;28;20040;-74
2022/04/03 01:49:57;;;;;;;3.40;1.05;;;2.80;73.10;;;;;;5051622;28;20052;-74
2022/04/03 01:52:23;;;;;;;3.67;1.20;;;2.90;73.10;;;;;;5052288;28;20110;-74
2022/04/03 01:54:48;;;;;;;6.72;1.60;;;2.90;73.10;;;;;;5056224;28;20047;-74
2022/04/03 01:57:14;;;;;;;2.08;1.33;;;3.00;73.10;;;;;;5052635;28;20150;-74
2022/04/03 01:59:40;;;;;;;2.33;0.90;;;3.00;73.10;;;;;;5052214;28;20047;-74
2022/04/03 02:02:05;;;;;;;3.20;1.15;;;3.10;73.20;;;;;;5051571;28;20414;-74
2022/04/03 02:04:32;;;;;;;4.60;1.30;;;3.10;73.20;;;;;;5052108;28;20139;-75
2022/04/03 02:06:58;;;;;;;3.17;1.40;;;3.10;73.30;;;;;;5051881;28;20056;-74
2022/04/03 02:09:24;;;;;;;6.18;1.52;;;3.20;73.20;;;;;;5050913;28;20066;-74
2022/04/03 02:11:49;;;;;;;3.60;1.10;;;3.20;73.20;;;;;;5050309;28;20080;-75
2022/04/03 02:14:15;;;;;;;2.47;1.08;;;3.20;73.20;;;;;;5055320;28;20045;-74
2022/04/03 02:16:40;;;;;;;7.18;1.20;;;3.30;73.30;;;;;;5051904;28;20041;-73
2022/04/03 02:19:06;;;;;;;3.05;1.73;;;3.30;73.30;;;;;;5051068;28;20036;-73
2022/04/03 02:21:32;;;;;;;4.30;1.13;;;3.30;73.20;;;;;;5051739;28;20064;-73
2022/04/03 02:23:57;;;;;;;2.60;1.15;;;3.30;73.20;;;;;;5054685;28;20037;-73
2022/04/03 02:26:23;;;;;;;3.67;1.25;;;3.30;73.10;;;;;;5052288;28;20057;-73
2022/04/03 02:28:48;;;;;;;3.88;1.50;;;3.40;73.00;;;;;;5054637;28;20048;-73
2022/04/03 02:31:14;;;;;;;2.22;1.13;;;3.40;73.00;;;;;;5051618;28;20517;-73
2022/04/03 02:33:40;;;;;;;3.30;1.23;;;3.30;73.00;;;;;;5052199;28;20495;-73
2022/04/03 02:36:06;;;;;;;4.45;1.50;;;3.30;73.00;;;;;;5050045;28;20572;-74
2022/04/03 02:38:32;;;;;;;9.40;2.47;;;3.20;72.90;;;;;;5054830;28;20041;-75
2022/04/03 02:40:57;;;;;;;1.00;0.70;;;3.20;72.90;;;;;;5051558;28;20182;-73
2022/04/03 02:43:23;;;;;;;3.10;1.20;;;3.20;72.90;;;;;;5051042;28;20577;-73
2022/04/03 02:45:49;;;;;;;4.82;1.63;;;3.20;72.80;;;;;;5049831;28;20049;-73
2022/04/03 02:48:15;;;;;;;3.33;1.40;;;3.20;72.90;;;;;;5047104;28;20086;-74
2022/04/03 02:50:41;;;;;;;2.72;1.00;;;3.10;73.00;;;;;;5052721;28;20458;-73
2022/04/03 02:53:07;;;;;;;2.83;1.15;;;3.10;73.00;;;;;;5050954;28;20029;-74
2022/04/03 02:55:33;;;;;;;4.45;1.30;;;3.10;73.00;;;;;;5050962;28;20160;-73
2022/04/03 02:57:58;;;;;;;3.90;1.13;;;3.10;73.00;;;;;;5050739;28;20045;-73
2022/04/03 03:00:24;;;;;;;2.95;1.20;;;3.00;73.10;;;;;;5052585;28;20045;-73
2022/04/03 03:02:52;;;;;;;4.60;1.40;;;3.00;73.20;;;;;;5049407;28;20443;-73
2022/04/03 03:05:18;;;;;;;2.28;1.00;;;2.90;73.40;;;;;;5049306;28;20433;-73
2022/04/03 03:07:45;;;;;;;2.30;1.20;;;2.90;73.60;;;;;;5048997;28;20048;-73
2022/04/03 03:10:14;;;;;;;1.98;1.02;;;2.90;73.50;;;;;;5050514;28;20685;-73
2022/04/03 03:12:40;;;;;;;2.13;1.15;;;2.90;73.60;;;;;;5051784;28;20422;-73
2022/04/03 03:15:06;;;;;;;3.30;1.33;;;2.80;73.60;;;;;;5047949;28;20055;-74
2022/04/03 03:17:33;;;;;;;3.17;1.33;;;2.80;73.70;;;;;;5050437;28;20044;-74
2022/04/03 03:19:58;;;;;;;3.05;1.50;;;2.70;73.80;;;;;;5051998;28;20095;-74
2022/04/03 03:22:25;;;;;;;3.40;1.20;;;2.70;73.70;;;;;;5055981;28;20045;-72
2022/04/03 03:24:50;;;;;;;9.63;1.23;;;2.60;73.90;;;;;;5051109;28;20068;-74
2022/04/03 03:27:16;;;;;;;4.90;0.95;;;2.60;73.90;;;;;;5059851;28;20076;-74
2022/04/03 03:29:42;;;;;;;3.45;0.88;;;2.60;73.80;;;;;;5042871;28;20049;-74
2022/04/03 03:32:08;;;;;;;2.55;1.15;;;2.60;73.90;;;;;;5061357;28;20127;-74
2022/04/03 03:34:34;;;;;;;2.17;1.05;;;2.60;74.00;;;;;;5056976;28;20048;-72
2022/04/03 03:37:01;;;;;;;3.03;1.17;;;2.60;74.00;;;;;;5050262;28;20056;-73
2022/04/03 03:39:27;;;;;;;3.28;1.10;;;2.50;74.10;;;;;;5062760;28;20036;-74
2022/04/03 03:41:55;;;;;;;4.20;0.98;;;2.50;74.10;;;;;;5066575;28;20099;-74
2022/04/03 03:44:22;;;;;;;1.83;1.05;;;2.50;74.10;;;;;;5060655;28;20373;-74
2022/04/03 03:46:47;;;;;;;2.55;1.05;;;2.50;74.10;;;;;;5054469;28;20049;-74
2022/04/03 03:49:14;;;;;;;4.07;1.08;;;2.40;74.20;;;;;;5057918;28;20594;-74
2022/04/03 03:51:40;;;;;;;3.42;1.30;;;2.40;74.20;;;;;;5049427;28;20053;-74
2022/04/03 03:54:06;;;;;;;6.22;1.13;;;2.30;74.30;;;;;;5049634;28;20045;-74
2022/04/03 03:56:32;;;;;;;2.65;1.15;;;2.30;74.20;;;;;;5049803;28;20192;-74
2022/04/03 03:58:58;;;;;;;2.28;1.17;;;2.30;74.30;;;;;;5056609;28;20040;-74
2022/04/03 04:01:23;;;;;;;4.05;1.42;;;2.20;74.30;;;;;;5069001;28;20424;-74
2022/04/03 04:03:49;;;;;;;7.32;1.90;;;2.20;74.40;;;;;;5061590;28;20045;-74
2022/04/03 04:06:15;;;;;;;2.42;1.20;;;2.20;74.50;;;;;;5058878;28;20044;-74
2022/04/03 04:08:42;;;;;;;2.70;1.25;;;2.10;74.60;;;;;;5051689;28;20048;-74
2022/04/03 04:11:08;;;;;;;1.55;1.02;;;2.10;74.70;;;;;;5067673;28;20442;-74
2022/04/03 04:13:33;;;;;;;5.85;1.88;;;2.10;74.60;;;;;;5067553;28;20044;-74
2022/04/03 04:16:00;;;;;;;4.05;1.10;;;2.00;74.80;;;;;;5069396;28;20037;-73
2022/04/03 04:18:25;;;;;;;3.35;1.08;;;1.90;75.00;;;;;;5053327;28;20040;-69
2022/04/03 04:20:52;;;;;;;2.95;0.90;;;1.90;75.20;;;;;;5049301;28;20528;-76
2022/04/03 04:23:19;;;;;;;6.50;1.10;;;1.80;75.30;;;;;;5050627;28;20041;-75
2022/04/03 04:25:45;;;;;;;1.30;0.68;;;1.80;75.60;;;;;;5054011;28;20539;-75
2022/04/03 04:28:11;;;;;;;2.55;1.00;;;1.80;75.30;;;;;;5047222;28;20055;-75
2022/04/03 04:30:38;;;;;;;4.28;0.98;;;1.80;75.90;;;;;;5052681;28;20056;-75
2022/04/03 04:33:04;;;;;;;3.92;2.47;;;1.80;76.10;;;;;;5051731;28;20037;-73
2022/04/03 04:35:30;;;;;;;3.13;0.80;;;1.90;76.10;;;;;;5057615;28;20045;-73
2022/04/03 04:37:55;;;;;;;2.85;0.85;;;1.80;76.60;;;;;;5050762;28;20049;-73
2022/04/03 04:40:21;;;;;;;2.88;1.08;;;1.80;76.40;;;;;;5054882;28;20120;-73
2022/04/03 04:42:47;;;;;;;1.73;0.95;;;1.80;76.60;;;;;;5069811;28;20045;-72
2022/04/03 04:45:14;;;;;;;2.78;0.80;;;1.80;76.70;;;;;;5065987;28;20096;-74
2022/04/03 04:47:41;;;;;;;2.78;0.80;;;1.80;76.60;;;;;;5058042;28;20052;-71
2022/04/03 04:50:12;;;;;;;3.20;0.80;;;1.70;76.60;;;;;;5053543;28;20131;-71
2022/04/03 04:52:39;;;;;;;3.50;1.17;;;1.70;77.00;;;;;;5043531;28;20519;-71
2022/04/03 04:55:05;;;;;;;3.83;1.60;;;1.70;77.20;;;;;;5048685;28;20275;-70
2022/04/03 04:57:36;;;;;;;2.22;0.80;;;1.70;77.10;;;;;;5048760;28;20375;-70
2022/04/03 05:00:06;;;;;;;2.63;0.80;;;1.70;77.30;;;;;;5054880;28;20409;-70
2022/04/03 05:02:31;;;;;;;2.83;0.75;;;1.60;77.40;;;;;;5061778;28;20057;-70
2022/04/03 05:04:57;;;;;;;5.55;0.88;;;1.60;77.90;;;;;;5069288;28;20098;-70
2022/04/03 05:07:23;;;;;;;1.08;0.60;;;1.50;78.10;;;;;;5053778;28;20072;-70
2022/04/03 05:09:49;;;;;;;3.97;1.38;;;1.50;77.90;;;;;;5053483;28;20457;-70
2022/04/03 05:12:15;;;;;;;1.80;0.60;;;1.60;77.90;;;;;;5057446;28;20476;-69
2022/04/03 05:14:41;;;;;;;2.00;0.63;;;1.50;77.80;;;;;;5069515;28;20124;-69
2022/04/03 05:17:08;;;;;;;2.03;1.00;;;1.60;77.70;;;;;;5053507;28;20124;-70
2022/04/03 05:19:35;;;;;;;4.90;1.13;;;1.60;78.00;;;;;;5053261;28;20104;-70
2022/04/03 05:22:01;;;;;;;2.92;1.02;;;1.60;77.90;;;;;;5053137;28;20555;-70
2022/04/03 05:24:26;;;;;;;3.30;1.02;;;1.70;77.90;;;;;;5053975;28;20053;-69
2022/04/03 05:26:52;;;;;;;3.50;0.98;;;1.70;78.00;;;;;;5053750;28;20041;-70
2022/04/03 05:29:18;;;;;;;4.60;1.05;;;1.70;78.50;;;;;;5052435;28;20136;-69
2022/04/03 05:31:44;;;;;;;3.90;0.82;;;1.70;79.30;;;;;;5053835;28;20051;-70
2022/04/03 05:34:10;;;;;;;5.53;0.90;;;1.70;78.90;;;;;;5053253;28;20048;-70
2022/04/03 05:36:36;;;;;;;5.93;1.10;;;1.70;79.20;;;;;;5053193;28;20081;-69
2022/04/03 05:39:04;;;;;;;2.50;1.00;;;1.70;79.20;;;;;;5053410;28;20090;-70
2022/04/03 05:41:30;;;;;;;1.75;0.98;;;1.80;79.20;;;;;;5053762;28;20067;-71
2022/04/03 05:43:56;;;;;;;4.43;1.15;;;1.80;79.30;;;;;;5053399;28;20056;-70
2022/04/03 05:46:22;;;;;;;2.30;0.77;;;1.90;79.10;;;;;;5052766;28;20049;-70
2022/04/03 05:48:48;;;;;;;2.35;0.90;;;1.90;78.70;;;;;;5053255;28;20048;-70
2022/04/03 05:51:14;;;;;;;3.53;1.02;;;2.00;78.40;;;;;;5051857;28;20053;-68
2022/04/03 05:53:40;;;;;;;4.38;1.98;;;2.00;78.30;;;;;;5053220;28;20145;-70
2022/04/03 05:56:06;;;;;;;4.60;0.80;;;2.10;78.10;;;;;;5052684;28;20501;-70
2022/04/03 05:58:31;;;;;;;4.50;1.23;;;2.10;78.00;;;;;;5052009;28;20037;-70
2022/04/03 06:00:57;;;;;;;0.93;0.70;;;2.20;77.90;;;;;;5051980;28;20406;-70
2022/04/03 06:03:22;;;;;;;4.90;0.80;;;2.20;77.80;;;;;;5051296;28;20608;-73
2022/04/03 06:05:48;;;;;;;2.38;1.00;;;2.30;77.70;;;;;;5054547;28;20131;-72
2022/04/03 06:08:14;;;;;;;5.28;1.13;;;2.30;77.50;;;;;;5052629;28;20049;-73
2022/04/03 06:10:39;;;;;;;3.28;1.30;;;2.40;77.40;;;;;;5052944;28;20057;-73
2022/04/03 06:13:09;;;;;;;3.92;1.15;;;2.40;77.50;;;;;;5053140;28;20055;-74
2022/04/03 06:15:37;;;;;;;6.22;1.63;;;2.40;77.70;;;;;;5053647;28;20056;-72
2022/04/03 06:18:08;;;;;;;3.65;0.93;;;2.40;77.80;;;;;;5053225;28;20099;-72
2022/04/03 06:20:34;;;;;;;4.75;1.85;;;2.40;77.60;;;;;;5053459;28;20049;-72
2022/04/03 06:23:01;;;;;;;4.55;1.80;;;2.50;77.70;;;;;;5053280;28;20045;-72
2022/04/03 06:25:27;;;;;;;1.90;1.00;;;2.50;77.90;;;;;;5053066;28;20049;-71
2022/04/03 06:27:53;;;;;;;2.35;1.05;;;2.60;78.30;;;;;;5051096;28;20450;-72
2022/04/03 06:30:19;;;;;;;6.45;2.22;;;2.60;78.80;;;;;;5053559;28;20596;-72
2022/04/03 06:32:45;;;;;;;6.18;2.17;;;2.70;79.00;;;;;;5047775;28;20500;-73
2022/04/03 06:35:11;;;;;;;5.55;2.70;;;2.80;79.30;;;;;;5053330;28;20064;-72
2022/04/03 06:37:37;;;;;;;5.65;1.88;;;2.90;80.20;;;;;;5052894;28;20563;-71
2022/04/03 06:40:04;;;;;;;1.80;1.13;;;3.00;79.90;;;;;;5053361;28;20103;-71
2022/04/03 06:42:31;;;;;;;2.10;1.30;;;3.10;80.00;;;;;;5052199;28;20048;-71
2022/04/03 06:44:58;;;;;;;4.00;2.28;;;3.10;80.10;;;;;;5051727;28;20041;-70
2022/04/03 06:47:23;;;;;;;2.63;1.30;;;3.20;80.30;;;;;;5052103;28;20056;-72
2022/04/03 06:49:49;;;;;;;5.32;1.70;;;3.20;80.50;;;;;;5051375;28;20052;-70
2022/04/03 06:52:15;;;;;;;8.68;1.75;;;3.30;80.40;;;;;;5051769;28;20037;-73
2022/04/03 06:54:40;;;;;;;3.80;1.33;;;3.40;80.50;;;;;;5051021;28;20544;-73
2022/04/03 06:57:07;;;;;;;2.58;1.88;;;3.50;80.50;;;;;;5040077;28;20099;-73
2022/04/03 06:59:32;;;;;;;2.45;1.50;;;3.60;81.20;;;;;;5052758;28;20044;-73
2022/04/03 07:01:58;;;;;;;4.53;1.67;;;3.70;81.20;;;;;;5039223;28;20052;-69
2022/04/03 07:04:24;;;;;;;3.90;1.70;;;3.80;80.60;;;;;;5042173;28;20072;-69
2022/04/03 07:06:49;;;;;;;3.40;1.58;;;4.10;80.70;;;;;;5042641;28;20053;-68
2022/04/03 07:09:15;;;;;;;3.47;1.63;;;4.50;80.30;;;;;;5048732;28;20114;-69
2022/04/03 07:11:41;;;;;;;5.38;1.65;;;4.60;79.20;;;;;;5049984;28;20118;-69
2022/04/03 07:14:06;;;;;;;4.05;1.60;;;4.70;79.60;;;;;;5042667;28;20120;-68
2022/04/03 07:16:32;;;;;;;2.25;1.38;;;4.70;79.40;;;;;;5046652;28;20124;-69
2022/04/03 07:18:57;;;;;;;3.85;1.60;;;4.70;79.10;;;;;;5048769;28;20041;-69
2022/04/03 07:21:23;;;;;;;2.08;1.48;;;4.70;79.30;;;;;;5047489;28;20090;-69
2022/04/03 07:23:49;;;;;;;3.35;2.00;;;4.70;79.60;;;;;;5046162;28;20037;-69
2022/04/03 07:26:15;;;;;;;4.90;2.63;;;4.70;79.80;;;;;;5047762;28;20132;-69
2022/04/03 07:28:41;;;;;;;2.72;1.80;;;4.60;80.00;;;;;;5045567;28;20045;-69
2022/04/03 07:31:07;;;;;;;4.32;2.10;;;4.70;80.10;;;;;;5050927;28;20037;-69
2022/04/03 07:33:32;;;;;;;5.32;2.70;;;4.70;80.10;;;;;;5043753;28;20052;-68
2022/04/03 07:35:58;;;;;;;4.30;2.83;;;4.90;80.20;;;;;;5043124;28;20045;-69
2022/04/03 07:38:23;;;;;;;3.08;2.00;;;5.10;80.10;;;;;;5048492;28;20414;-69
2022/04/03 07:40:49;;;;;;;3.33;1.73;;;5.10;79.80;;;;;;5044653;28;20053;-69
2022/04/03 07:43:16;;;;;;;4.10;1.60;;;5.10;79.30;;;;;;5036017;28;20084;-69
2022/04/03 07:45:43;;;;;;;4.15;1.85;;;5.10;79.20;;;;;;5048141;28;20041;-70
2022/04/03 07:48:09;;;;;;;1.85;1.10;;;5.10;78.70;;;;;;5047484;28;20051;-70
2022/04/03 07:50:35;;;;;;;3.67;1.40;;;5.10;78.50;;;;;;5041557;28;20048;-70
2022/04/03 07:53:01;;;;;;;6.07;1.70;;;5.10;78.70;;;;;;5047296;28;20037;-70
2022/04/03 07:55:26;;;;;;;5.63;2.30;;;5.20;78.40;;;;;;5047860;28;20097;-70
2022/04/03 07:57:52;;;;;;;2.22;1.40;;;5.20;78.10;;;;;;5049166;28;20053;-70
2022/04/03 08:00:18;;;;;;;5.47;1.50;;;5.20;78.10;;;;;;5046668;28;20084;-69
2022/04/03 08:02:44;;;;;;;4.57;1.33;;;5.20;78.00;;;;;;5029564;28;20549;-69
2022/04/03 08:05:10;;;;;;;2.70;1.35;;;5.20;78.00;;;;;;5046896;28;20053;-70
2022/04/03 08:07:43;;;;;;;4.15;1.35;;;5.30;78.10;;;;;;5046486;28;20069;-70
2022/04/03 08:10:10;;;;;;;3.65;2.22;;;5.40;77.80;;;;;;5048639;28;20060;-72
2022/04/03 08:12:38;;;;;;;2.75;1.27;;;5.40;77.60;;;;;;5048138;28;20149;-71
2022/04/03 08:15:05;;;;;;;4.40;0.93;;;5.40;77.40;;;;;;5047470;28;20053;-73
2022/04/03 08:17:32;;;;;;;4.10;1.15;;;5.40;77.10;;;;;;5047965;28;20099;-71
2022/04/03 08:19:57;;;;;;;5.07;0.80;;;5.50;76.10;;;;;;5048450;28;20044;-72
2022/04/03 08:22:23;;;;;;;0.65;0.52;;;5.60;75.80;;;;;;5048937;28;20045;-72
2022/04/03 08:24:50;;;;;;;2.67;0.50;;;5.60;74.50;;;;;;5048601;28;20091;-72
2022/04/03 08:27:16;;;;;;;1.63;0.60;;;5.70;72.90;;;;;;5048741;28;20110;-72
2022/04/03 08:29:42;;;;;;;0.40;0.32;;;5.70;71.90;;;;;;5047541;28;20045;-72
2022/04/03 08:32:08;;;;;;;2.97;0.77;;;5.80;71.60;;;;;;5048554;28;20094;-72
2022/04/03 08:34:34;;;;;;;3.13;0.65;;;5.90;71.60;;;;;;5047206;28;20045;-72
2022/04/03 08:37:00;;;;;;;2.42;0.63;;;5.90;71.70;;;;;;5048527;28;20405;-71
2022/04/03 08:39:26;;;;;;;2.38;0.73;;;6.00;71.80;;;;;;5048882;28;20048;-73
2022/04/03 08:41:53;;;;;;;2.50;0.90;;;6.00;71.90;;;;;;5047332;28;20041;-72
2022/04/03 08:44:19;;;;;;;3.40;0.90;;;6.10;72.70;;;;;;5048581;28;20047;-73
2022/04/03 08:46:48;;;;;;;5.47;0.90;;;6.10;73.20;;;;;;5047969;28;20131;-69
2022/04/03 08:49:19;;;;;;;4.35;0.80;;;6.20;72.90;;;;;;5047245;28;20145;-71
2022/04/03 08:51:46;;;;;;;1.33;0.73;;;6.10;73.00;;;;;;5047104;28;20497;-70
2022/04/03 08:54:14;;;;;;;2.53;0.95;;;6.00;73.50;;;;;;5048578;28;20049;-71
2022/04/03 08:56:40;;;;;;;3.08;0.65;;;6.10;73.90;;;;;;5047905;28;20052;-71
2022/04/03 08:59:06;;;;;;;2.63;0.60;;;6.10;73.00;;;;;;5050119;28;20094;-71
2022/04/03 09:01:31;;;;;;;3.55;1.00;;;6.00;73.10;;;;;;5049005;28;20049;-71
2022/04/03 09:03:57;;;;;;;3.88;0.80;;;6.00;73.40;;;;;;5049058;28;20044;-71
2022/04/03 09:06:22;;;;;;;5.25;0.75;;;6.10;73.60;;;;;;5048480;28;20493;-71
2022/04/03 09:08:49;;;;;;;2.25;0.85;;;6.30;72.70;;;;;;5043010;28;20518;-71
2022/04/03 09:11:15;;;;;;;3.03;0.70;;;6.20;72.20;;;;;;5047039;28;20124;-68
2022/04/03 09:13:42;;;;;;;3.88;0.80;;;6.30;72.40;;;;;;5049474;28;20041;-70
2022/04/03 09:16:09;;;;;;;5.00;1.08;;;6.50;72.10;;;;;;5047976;28;20049;-70
2022/04/03 09:18:52;;;;;;;1.63;0.70;;;6.40;71.00;;;;;;5048450;28;20052;-70
2022/04/03 09:21:25;;;;;;;4.32;0.63;;;6.30;71.20;;;;;;5047671;28;20432;-69
2022/04/03 09:24:11;;;;;;;0.95;0.50;;;6.20;71.00;;;;;;5049180;28;20052;-74
2022/04/03 09:26:39;;;;;;;2.47;0.77;;;6.30;71.00;;;;;;5049390;28;20702;-72
2022/04/03 09:29:07;;;;;;;1.98;0.50;;;6.30;70.90;;;;;;5046968;28;20098;-72
2022/04/03 09:31:32;;;;;;;3.33;1.50;;;6.40;70.30;;;;;;5047911;28;20041;-72
2022/04/03 09:34:02;;;;;;;1.67;0.55;;;6.60;70.00;;;;;;5048487;28;20049;-72
2022/04/03 09:36:32;;;;;;;2.38;0.68;;;6.70;69.50;;;;;;5050397;28;20102;-72
2022/04/03 09:39:25;;;;;;;3.92;1.67;;;6.80;69.10;;;;;;5032537;28;20065;-72
2022/04/03 09:41:58;;;;;;;1.50;0.60;;;6.90;68.70;;;;;;5058689;28;20417;-72
2022/04/03 09:44:32;;;;;;;1.90;0.50;;;6.90;67.90;;;;;;5041362;28;20044;-71
2022/04/03 09:47:26;;;;;;;6.32;1.00;;;6.90;67.80;;;;;;5036302;28;20084;-70
2022/04/03 09:50:04;;;;;;;6.15;0.80;;;7.00;67.40;;;;;;5044013;28;20049;-70
2022/04/03 09:52:43;;;;;;;5.43;0.80;;;7.00;67.60;;;;;;5047709;28;20079;-70
2022/04/03 09:55:21;;;;;;;2.60;0.55;;;7.00;68.40;;;;;;5051285;28;20044;-69
2022/04/03 09:58:04;;;;;;;4.03;0.75;;;7.10;67.50;;;;;;5051605;28;20052;-69
2022/04/03 10:00:31;;;;;;;1.88;0.40;;;7.10;68.00;;;;;;5050279;28;20120;-69
2022/04/03 10:03:00;;;;;;;1.15;0.50;;;7.20;67.40;;;;;;5052348;28;20163;-69
2022/04/03 10:05:28;;;;;;;1.00;0.35;;;7.20;66.60;;;;;;5052442;28;20105;-69
2022/04/03 10:07:59;;;;;;;5.07;0.60;;;7.30;66.10;;;;;;5052098;28;20064;-69
2022/04/03 10:10:29;;;;;;;3.08;0.65;;;7.40;65.30;;;;;;5050827;28;20048;-69
2022/04/03 10:12:55;;;;;;;2.28;0.43;;;7.50;64.90;;;;;;5052118;28;20497;-69
2022/04/03 10:15:25;;;;;;;3.95;0.82;;;7.50;64.40;;;;;;5050914;28;20119;-68
2022/04/03 10:17:51;;;;;;;1.10;0.43;;;7.50;63.70;;;;;;5050102;28;20084;-69
2022/04/03 10:20:17;;;;;;;5.35;0.73;;;7.60;64.50;;;;;;5037188;28;20100;-72
2022/04/03 10:22:50;;;;;;;4.05;0.38;;;7.60;64.10;;;;;;5034179;28;20043;-70
2022/04/03 10:25:24;;;;;;;3.13;1.42;;;7.80;63.90;;;;;;5047694;28;20033;-73
2022/04/03 10:27:51;;;;;;;6.03;0.68;;;7.90;63.70;;;;;;5048590;28;20464;-69
2022/04/03 10:30:17;;;;;;;7.97;2.92;;;8.20;63.20;;;;;;5047267;28;20053;-71
2022/04/03 10:32:58;;;;;;;3.17;0.47;;;8.20;61.40;;;;;;5043911;28;20045;-71
2022/04/03 10:35:24;;;;;;;2.85;0.60;;;8.20;62.10;;;;;;5047833;28;20079;-70
2022/04/03 10:38:04;;;;;;;3.85;0.85;;;8.20;63.20;;;;;;5050117;28;20077;-72
2022/04/03 10:40:34;;;;;;;2.92;0.40;;;8.10;64.00;;;;;;5049691;28;20049;-71
2022/04/03 10:43:06;;;;;;;2.90;0.45;;;7.80;64.20;;;;;;5051494;28;20052;-70
2022/04/03 10:45:35;;;;;;;3.15;0.50;;;7.70;64.30;;;;;;5050494;28;20045;-70
2022/04/03 10:48:19;;;;;;;2.25;0.75;;;7.70;64.00;;;;;;5050543;28;20497;-70
2022/04/03 10:51:03;;;;;;;2.85;0.50;;;7.80;62.50;;;;;;5038038;28;20053;-70
2022/04/03 10:53:35;;;;;;;2.25;0.60;;;8.00;63.80;;;;;;5050338;28;20049;-70
2022/04/03 10:56:07;;;;;;;0.95;0.35;;;7.90;63.40;;;;;;5052001;28;20375;-70
2022/04/03 10:58:41;;;;;;;1.63;0.40;;;7.60;62.90;;;;;;5050825;28;20056;-70
2022/04/03 11:01:11;;;;;;;2.92;0.50;;;7.40;62.10;;;;;;5051765;28;20060;-71
2022/04/03 11:03:38;;;;;;;5.35;0.88;;;7.50;62.30;;;;;;5051513;28;20076;-70
2022/04/03 11:06:21;;;;;;;1.20;0.30;;;7.60;62.30;;;;;;5050987;28;20049;-69
2022/04/03 11:08:57;;;;;;;2.97;0.68;;;7.80;60.00;;;;;;5050670;28;20095;-68
2022/04/03 11:11:35;;;;;;;3.92;0.65;;;7.90;62.80;;;;;;5050870;28;20540;-69
2022/04/03 11:14:01;;;;;;;3.17;0.80;;;8.00;61.90;;;;;;5050298;28;20048;-68
2022/04/03 11:16:28;;;;;;;4.60;0.60;;;8.00;62.50;;;;;;5051263;28;20186;-69
2022/04/03 11:18:53;;;;;;;1.48;0.50;;;8.10;61.40;;;;;;5050619;28;20516;-69
2022/04/03 11:21:34;;;;;;;1.77;0.57;;;8.30;61.40;;;;;;5049228;28;20064;-69
2022/04/03 11:24:05;;;;;;;2.65;0.47;;;8.50;60.70;;;;;;5051222;28;20045;-69
2022/04/03 11:26:32;;;;;;;3.40;0.50;;;8.60;60.00;;;;;;5045410;28;20065;-68
2022/04/03 11:28:58;;;;;;;2.00;0.55;;;8.50;58.10;;;;;;5054560;28;20663;-69
2022/04/03 11:31:24;;;;;;;1.92;0.50;;;8.30;57.00;;;;;;5050289;28;20135;-69
2022/04/03 11:33:51;;;;;;;0.90;0.30;;;8.10;58.30;;;;;;5048782;28;20041;-68
2022/04/03 11:36:19;;;;;;;1.80;0.40;;;8.20;59.20;;;;;;5051035;28;20051;-69
2022/04/03 11:38:46;;;;;;;5.35;0.40;;;8.30;60.40;;;;;;5050474;28;20040;-69
2022/04/03 11:41:17;;;;;;;1.98;0.50;;;8.10;60.70;;;;;;5049539;28;20079;-69
2022/04/03 11:43:56;;;;;;;0.95;0.30;;;8.00;60.20;;;;;;5048918;28;20041;-69
2022/04/03 11:46:22;;;;;;;3.58;0.45;;;7.80;60.60;;;;;;5050409;28;20033;-69
2022/04/03 11:48:48;;;;;;;2.25;0.40;;;7.70;61.80;;;;;;5048007;28;20048;-68
2022/04/03 11:51:16;;;;;;;2.15;0.47;;;7.90;62.00;;;;;;5049461;28;20059;-69
2022/04/03 11:53:44;;;;;;;1.42;0.40;;;7.90;59.80;;;;;;5049230;28;20052;-69
2022/04/03 11:56:17;;;;;;;3.50;0.50;;;8.00;60.00;;;;;;5036856;28;20056;-69
2022/04/03 11:58:48;;;;;;;3.08;0.50;;;8.00;60.20;;;;;;5040597;28;20388;-69
2022/04/03 12:01:26;;;;;;;2.83;0.60;;;7.90;60.30;;;;;;5048202;28;20045;-68
2022/04/03 12:04:08;;;;;;;2.60;0.50;;;7.80;59.40;;;;;;5048866;28;20037;-68
2022/04/03 12:06:35;;;;;;;2.47;0.73;;;7.90;60.50;;;;;;5043342;28;20049;-69
2022/04/03 12:09:08;;;;;;;3.03;0.40;;;8.00;59.60;;;;;;5034985;28;20049;-69
2022/04/03 12:11:35;;;;;;;3.33;0.43;;;8.20;59.20;;;;;;5044675;28;20413;-67
2022/04/03 12:14:02;;;;;;;3.03;0.40;;;8.10;59.30;;;;;;5044080;28;20040;-70
2022/04/03 12:16:32;;;;;;;3.22;0.35;;;8.00;60.00;;;;;;5044523;28;20146;-69
2022/04/03 12:19:01;;;;;;;4.65;0.60;;;8.00;58.90;;;;;;5035848;28;20498;-69
2022/04/03 12:21:47;;;;;;;3.58;0.70;;;8.20;58.70;;;;;;5048558;28;20044;-70
2022/04/03 12:24:15;;;;;;;4.82;0.40;;;8.40;60.20;;;;;;5048817;28;20120;-70
2022/04/03 12:27:16;;;;;;;1.85;0.45;;;8.50;59.90;;;;;;5038142;28;20516;-69
2022/04/03 12:29:43;;;;;;;3.30;0.77;;;8.60;57.20;;;;;;5047053;28;20424;-71
2022/04/03 12:32:13;;;;;;;1.85;0.63;;;8.70;57.70;;;;;;5048722;28;20401;-71
2022/04/03 12:34:40;;;;;;;0.77;0.30;;;8.60;56.20;;;;;;5048258;28;20083;-71
2022/04/03 12:37:08;;;;;;;2.65;0.60;;;8.50;58.20;;;;;;5037203;28;20048;-72
2022/04/03 12:39:42;;;;;;;3.20;0.40;;;8.50;58.60;;;;;;5044363;28;20045;-71
2022/04/03 12:42:10;;;;;;;4.22;0.52;;;8.30;58.10;;;;;;5048762;28;20551;-70
2022/04/03 12:44:42;;;;;;;1.80;0.60;;;8.10;59.00;;;;;;5046652;28;20094;-69
2022/04/03 12:47:20;;;;;;;3.95;0.43;;;8.30;59.50;;;;;;5035134;28;20452;-71
2022/04/03 12:50:07;;;;;;;3.10;0.50;;;8.50;58.50;;;;;;5046823;28;20127;-70
2022/04/03 12:52:48;;;;;;;3.45;0.60;;;8.30;58.60;;;;;;5028065;28;20051;-70
2022/04/03 12:55:23;;;;;;;1.45;0.30;;;8.20;59.10;;;;;;5046712;28;20207;-70
2022/04/03 13:00:54;;;;;;;2.72;0.68;;;8.20;59.10;;;;;;5048465;28;20057;-69
2022/04/03 13:03:39;;;;;;;2.10;0.60;;;8.00;59.30;;;;;;5047093;28;20428;-70